Time;durP1;ratioP1;P1;durP2;ratioP2;P2;SDS_P1;SDS_P2;PMS_P1;PMS_P2;Temp;Humidity;BMP_temperature;BMP_pressure;BME280_temperature;BME280_humidity;BME280_pressure;Samples;Min_cycle;Max_cycle;Signal;HPM_P1;HPM_P2
2023/03/28 00:02:12;;;;;;;13.57;5.38;;;9.90;83.30;;;;;;5053261;28;20072;-72
2023/03/28 00:04:37;;;;;;;10.52;4.65;;;9.90;83.20;;;;;;5053083;28;20120;-72
2023/03/28 00:07:04;;;;;;;11.35;5.15;;;10.00;83.30;;;;;;5053064;28;20039;-72
2023/03/28 00:09:30;;;;;;;10.45;5.15;;;9.90;83.30;;;;;;5053054;28;20074;-72
2023/03/28 00:11:56;;;;;;;8.85;4.78;;;9.90;83.40;;;;;;5052658;28;20021;-72
2023/03/28 00:14:21;;;;;;;12.70;5.80;;;9.90;83.60;;;;;;5053061;28;20378;-72
2023/03/28 00:16:47;;;;;;;11.13;5.22;;;9.90;83.60;;;;;;5053201;28;20036;-72
2023/03/28 00:19:18;;;;;;;10.27;5.60;;;9.90;83.50;;;;;;5052879;28;20025;-72
2023/03/28 00:21:46;;;;;;;12.68;5.30;;;9.90;83.50;;;;;;5052881;28;20048;-72
2023/03/28 00:24:14;;;;;;;13.57;5.47;;;9.90;83.70;;;;;;5052729;28;20037;-72
2023/03/28 00:26:41;;;;;;;11.45;5.55;;;9.90;84.00;;;;;;5052732;28;20021;-72
2023/03/28 00:29:10;;;;;;;14.23;5.68;;;9.80;84.10;;;;;;5034777;28;20025;-72
2023/03/28 00:31:37;;;;;;;13.20;5.15;;;9.80;84.30;;;;;;5053100;28;20474;-72
2023/03/28 00:34:04;;;;;;;10.23;4.88;;;9.80;84.10;;;;;;5052547;28;20052;-72
2023/03/28 00:36:31;;;;;;;11.07;4.70;;;9.80;84.00;;;;;;5052993;28;20025;-72
2023/03/28 00:39:04;;;;;;;10.85;5.10;;;9.80;84.10;;;;;;5052732;28;20017;-72
2023/03/28 00:41:34;;;;;;;11.77;5.85;;;9.80;84.20;;;;;;5052493;28;20059;-72
2023/03/28 00:44:00;;;;;;;10.55;5.80;;;9.70;84.20;;;;;;5052499;28;20068;-72
2023/03/28 00:46:28;;;;;;;10.77;6.38;;;9.70;84.20;;;;;;5052587;28;20017;-72
2023/03/28 00:49:02;;;;;;;12.10;6.18;;;9.70;84.40;;;;;;5052415;28;20025;-72
2023/03/28 00:51:36;;;;;;;10.70;6.53;;;9.70;84.40;;;;;;5052479;28;20024;-72
2023/03/28 00:54:03;;;;;;;10.18;5.75;;;9.70;84.40;;;;;;5052394;28;20466;-72
2023/03/28 00:56:33;;;;;;;10.93;5.60;;;9.70;84.60;;;;;;5052366;28;20032;-72
2023/03/28 00:59:03;;;;;;;10.32;5.10;;;9.70;84.50;;;;;;5051764;28;20025;-72
2023/03/28 01:01:29;;;;;;;16.05;6.40;;;9.60;84.70;;;;;;5052514;28;20017;-72
2023/03/28 01:04:04;;;;;;;9.63;5.90;;;9.60;84.70;;;;;;5052322;28;20041;-72
2023/03/28 01:06:35;;;;;;;10.57;5.80;;;9.60;84.70;;;;;;5052358;28;20029;-72
2023/03/28 01:09:05;;;;;;;9.00;5.83;;;9.60;84.70;;;;;;5052549;28;20386;-72
2023/03/28 01:11:33;;;;;;;11.77;5.53;;;9.60;84.40;;;;;;5052133;28;20029;-72
2023/03/28 01:14:01;;;;;;;9.57;5.32;;;9.60;84.20;;;;;;5052175;28;20025;-72
2023/03/28 01:16:29;;;;;;;8.60;5.13;;;9.50;84.40;;;;;;5052376;28;20377;-72
2023/03/28 01:19:00;;;;;;;13.80;5.28;;;9.50;84.40;;;;;;5052284;28;20032;-72
2023/03/28 01:21:32;;;;;;;10.20;5.10;;;9.50;85.00;;;;;;5052248;28;20363;-72
2023/03/28 01:24:40;;;;;;;13.00;5.50;;;9.50;84.40;;;;;;5052042;28;20035;-72
2023/03/28 01:27:28;;;;;;;13.23;5.55;;;9.50;84.20;;;;;;5028668;28;20037;-72
2023/03/28 01:30:11;;;;;;;12.13;4.97;;;9.50;84.30;;;;;;5052258;28;20057;-72
2023/03/28 01:32:42;;;;;;;12.38;5.25;;;9.40;84.10;;;;;;5052343;28;20044;-72
2023/03/28 01:35:35;;;;;;;9.03;4.73;;;9.40;84.20;;;;;;5051950;28;20032;-72
2023/03/28 01:38:35;;;;;;;10.00;5.28;;;9.40;84.10;;;;;;5052042;28;20040;-72
2023/03/28 01:41:27;;;;;;;9.77;5.18;;;9.30;84.00;;;;;;5051593;28;20033;-72
2023/03/28 01:44:01;;;;;;;14.55;5.60;;;9.30;84.10;;;;;;5051903;28;20040;-72
2023/03/28 01:46:31;;;;;;;12.43;5.50;;;9.30;84.10;;;;;;5052040;28;20033;-72
2023/03/28 01:49:31;;;;;;;11.70;4.93;;;9.30;84.10;;;;;;5051883;28;20025;-72
2023/03/28 01:52:07;;;;;;;11.90;5.03;;;9.20;84.10;;;;;;5043608;28;20139;-72
2023/03/28 01:54:42;;;;;;;13.65;5.50;;;9.20;84.10;;;;;;5051551;28;20032;-72
2023/03/28 01:57:39;;;;;;;11.10;5.95;;;9.20;84.60;;;;;;5051949;28;20382;-72
2023/03/28 02:00:18;;;;;;;10.25;5.75;;;9.10;84.30;;;;;;5051790;28;20155;-72
2023/03/28 02:03:19;;;;;;;11.45;5.38;;;9.10;84.30;;;;;;5052034;28;20013;-72
2023/03/28 02:05:47;;;;;;;10.48;5.05;;;9.10;84.50;;;;;;5019116;28;20128;-72
2023/03/28 02:08:14;;;;;;;8.77;4.80;;;9.10;84.60;;;;;;5051498;28;20469;-72
2023/03/28 02:10:42;;;;;;;10.63;4.93;;;9.10;84.40;;;;;;5051984;28;20078;-72
2023/03/28 02:13:13;;;;;;;11.30;4.82;;;9.00;84.40;;;;;;5055575;28;20025;-72
2023/03/28 02:15:41;;;;;;;8.68;4.38;;;9.00;84.20;;;;;;5055094;28;20025;-72
2023/03/28 02:18:15;;;;;;;10.88;5.13;;;9.00;84.60;;;;;;5055287;28;20494;-72
2023/03/28 02:20:43;;;;;;;12.85;5.63;;;9.00;84.50;;;;;;5055310;28;20021;-72
2023/03/28 02:23:21;;;;;;;14.45;5.45;;;9.00;84.80;;;;;;5054863;28;20028;-72
2023/03/28 02:25:47;;;;;;;9.60;5.53;;;9.00;84.70;;;;;;5054961;28;20037;-72
2023/03/28 02:28:14;;;;;;;11.43;5.75;;;9.00;84.80;;;;;;5054957;28;20555;-72
2023/03/28 02:30:39;;;;;;;12.43;5.05;;;8.90;84.90;;;;;;5055049;28;20056;-72
2023/03/28 02:33:08;;;;;;;11.20;5.20;;;8.90;84.80;;;;;;5055036;28;20463;-72
2023/03/28 02:35:57;;;;;;;10.35;4.80;;;8.90;84.80;;;;;;5054837;28;20028;-71
2023/03/28 02:39:00;;;;;;;12.27;4.78;;;8.90;84.80;;;;;;5054544;28;20052;-72
2023/03/28 02:41:38;;;;;;;9.40;4.40;;;8.90;84.80;;;;;;5054686;28;20028;-72
2023/03/28 02:44:09;;;;;;;8.60;4.72;;;8.80;85.10;;;;;;5054977;28;20389;-72
2023/03/28 02:46:56;;;;;;;12.73;5.45;;;8.80;85.20;;;;;;5054718;28;20023;-72
2023/03/28 02:49:41;;;;;;;10.10;5.00;;;8.70;85.20;;;;;;5054658;28;20021;-72
2023/03/28 02:52:19;;;;;;;9.70;4.90;;;8.70;85.80;;;;;;5054250;28;20021;-72
2023/03/28 02:55:02;;;;;;;7.05;4.47;;;8.70;86.00;;;;;;5054502;28;20028;-72
2023/03/28 02:57:52;;;;;;;9.50;4.97;;;8.70;85.40;;;;;;5054473;28;20474;-72
2023/03/28 03:00:19;;;;;;;8.23;4.63;;;8.70;85.20;;;;;;5054548;28;20028;-72
2023/03/28 03:02:50;;;;;;;11.65;5.15;;;8.70;85.30;;;;;;5054473;28;20017;-72
2023/03/28 03:05:19;;;;;;;11.95;4.95;;;8.70;85.30;;;;;;5054569;28;20095;-72
2023/03/28 03:07:45;;;;;;;6.43;4.40;;;8.60;85.30;;;;;;5053870;28;20101;-72
2023/03/28 03:10:12;;;;;;;10.60;5.57;;;8.70;85.40;;;;;;5054429;28;20098;-72
2023/03/28 03:12:39;;;;;;;12.50;5.07;;;8.70;85.30;;;;;;5054203;28;20086;-72
2023/03/28 03:15:06;;;;;;;11.25;4.68;;;8.60;85.60;;;;;;5054062;28;20397;-72
2023/03/28 03:17:32;;;;;;;10.45;4.88;;;8.60;85.70;;;;;;5054241;28;20028;-72
2023/03/28 03:19:58;;;;;;;12.02;4.70;;;8.60;85.50;;;;;;5054206;28;20482;-72
2023/03/28 03:22:24;;;;;;;10.63;4.88;;;8.60;85.60;;;;;;5053098;28;20020;-72
2023/03/28 03:24:50;;;;;;;8.88;5.30;;;8.60;86.40;;;;;;5053845;28;20045;-72
2023/03/28 03:27:19;;;;;;;11.95;4.55;;;8.50;85.80;;;;;;5035979;28;20036;-72
2023/03/28 03:29:47;;;;;;;10.73;4.45;;;8.50;85.90;;;;;;5053940;28;20025;-72
2023/03/28 03:32:13;;;;;;;11.57;5.07;;;8.50;86.20;;;;;;5053984;28;20029;-72
2023/03/28 03:34:40;;;;;;;13.93;4.95;;;8.50;86.10;;;;;;5053532;28;20017;-72
2023/03/28 03:37:08;;;;;;;9.15;4.85;;;8.50;86.20;;;;;;5053669;28;20556;-72
2023/03/28 03:39:35;;;;;;;7.88;4.20;;;8.50;86.10;;;;;;5053488;28;20071;-72
2023/03/28 03:42:01;;;;;;;7.90;5.07;;;8.50;86.00;;;;;;5053709;28;20458;-72
2023/03/28 03:44:26;;;;;;;10.73;5.30;;;8.50;86.20;;;;;;5053390;28;20036;-72
2023/03/28 03:46:52;;;;;;;8.88;4.75;;;8.50;86.10;;;;;;5053491;28;20034;-72
2023/03/28 03:49:17;;;;;;;13.88;5.43;;;8.50;85.90;;;;;;5053377;28;20087;-72
2023/03/28 03:51:43;;;;;;;11.02;5.15;;;8.50;86.10;;;;;;5053303;28;20501;-72
2023/03/28 03:54:10;;;;;;;8.18;4.60;;;8.50;86.20;;;;;;5053299;28;20039;-72
2023/03/28 03:56:36;;;;;;;10.85;5.32;;;8.50;86.10;;;;;;5053326;28;20021;-72
2023/03/28 03:59:01;;;;;;;9.30;5.13;;;8.40;86.10;;;;;;5064348;28;20056;-72
2023/03/28 04:01:28;;;;;;;10.60;5.38;;;8.50;86.30;;;;;;5055336;28;20461;-72
2023/03/28 04:03:55;;;;;;;12.77;5.53;;;8.40;86.30;;;;;;5071129;28;20185;-72
2023/03/28 04:06:21;;;;;;;12.13;5.45;;;8.40;86.30;;;;;;5072406;28;20234;-72
2023/03/28 04:08:46;;;;;;;10.75;4.63;;;8.40;86.40;;;;;;5072989;28;20024;-72
2023/03/28 04:11:12;;;;;;;11.90;5.72;;;8.30;86.60;;;;;;5073159;28;20035;-72
2023/03/28 04:13:37;;;;;;;11.45;4.95;;;8.40;86.80;;;;;;5073031;28;20025;-72
2023/03/28 04:16:03;;;;;;;9.65;5.25;;;8.30;86.70;;;;;;5073301;28;20541;-71
2023/03/28 04:18:29;;;;;;;9.88;5.47;;;8.30;86.80;;;;;;5072670;28;20032;-72
2023/03/28 04:20:58;;;;;;;12.10;4.78;;;8.30;86.90;;;;;;5072931;28;20024;-71
2023/03/28 04:23:26;;;;;;;8.25;5.05;;;8.30;87.10;;;;;;5072637;28;20033;-72
2023/03/28 04:25:56;;;;;;;8.73;5.30;;;8.20;86.90;;;;;;5072861;28;20028;-72
2023/03/28 04:28:30;;;;;;;13.55;5.40;;;8.30;87.00;;;;;;5072820;28;20024;-72
2023/03/28 04:30:59;;;;;;;10.52;5.30;;;8.30;86.90;;;;;;5072976;28;20035;-71
2023/03/28 04:33:26;;;;;;;19.15;9.60;;;8.20;86.80;;;;;;5071777;28;20079;-72
2023/03/28 04:36:00;;;;;;;15.27;7.45;;;8.20;86.80;;;;;;5072390;28;20485;-72
2023/03/28 04:38:31;;;;;;;12.73;5.78;;;8.20;86.80;;;;;;5072699;28;20064;-72
2023/03/28 04:40:57;;;;;;;15.80;5.40;;;8.20;87.10;;;;;;5072751;28;20039;-72
2023/03/28 04:43:27;;;;;;;9.02;5.07;;;8.20;87.10;;;;;;5072512;28;20021;-72
2023/03/28 04:45:53;;;;;;;13.90;5.15;;;8.20;87.10;;;;;;5072583;28;20067;-72
2023/03/28 04:48:20;;;;;;;11.10;5.00;;;8.10;87.10;;;;;;5072247;28;20049;-71
2023/03/28 04:50:46;;;;;;;12.02;5.25;;;8.10;87.10;;;;;;5072656;28;20047;-71
2023/03/28 04:53:12;;;;;;;11.38;5.35;;;8.10;87.10;;;;;;5072321;28;20465;-71
2023/03/28 04:55:38;;;;;;;11.10;5.22;;;8.10;87.20;;;;;;5072425;28;20029;-71
2023/03/28 04:58:05;;;;;;;13.70;5.82;;;8.10;87.20;;;;;;5072451;28;20068;-71
2023/03/28 05:00:32;;;;;;;9.50;4.82;;;8.10;87.00;;;;;;5071597;28;20104;-71
2023/03/28 05:03:03;;;;;;;10.18;5.38;;;8.10;87.00;;;;;;5071664;28;20029;-71
2023/03/28 05:05:30;;;;;;;14.70;5.18;;;8.10;87.20;;;;;;5072242;28;20040;-72
2023/03/28 05:07:56;;;;;;;10.20;5.07;;;8.10;87.10;;;;;;5070370;28;20389;-71
2023/03/28 05:10:22;;;;;;;10.38;5.55;;;8.10;87.10;;;;;;5071298;28;20063;-71
2023/03/28 05:12:48;;;;;;;12.68;5.65;;;8.00;87.20;;;;;;5066473;28;20057;-71
2023/03/28 05:15:14;;;;;;;12.02;5.30;;;8.00;87.20;;;;;;5056001;28;20028;-69
2023/03/28 05:17:41;;;;;;;10.50;5.38;;;8.10;87.30;;;;;;5061896;28;20109;-70
2023/03/28 05:20:09;;;;;;;7.35;4.90;;;8.00;87.30;;;;;;5064311;28;20035;-71
2023/03/28 05:22:35;;;;;;;10.25;5.30;;;7.90;87.50;;;;;;5064932;28;20477;-70
2023/03/28 05:25:01;;;;;;;9.85;5.57;;;8.00;87.50;;;;;;5036644;28;20051;-71
2023/03/28 05:27:26;;;;;;;10.60;5.80;;;8.00;87.60;;;;;;5056204;28;20016;-72
2023/03/28 05:29:52;;;;;;;11.30;5.68;;;8.10;87.30;;;;;;5059202;28;20089;-70
2023/03/28 05:32:17;;;;;;;13.05;6.75;;;8.10;87.80;;;;;;5067167;28;20020;-71
2023/03/28 05:34:43;;;;;;;10.57;6.75;;;8.00;87.30;;;;;;5068585;28;20024;-72
2023/03/28 05:37:09;;;;;;;14.73;7.80;;;8.00;87.40;;;;;;5057147;28;20067;-71
2023/03/28 05:39:34;;;;;;;12.18;6.25;;;8.00;87.40;;;;;;5066242;28;20418;-71
2023/03/28 05:42:00;;;;;;;13.10;5.75;;;8.00;87.50;;;;;;5061154;28;20017;-71
2023/03/28 05:44:25;;;;;;;12.52;5.55;;;8.00;87.70;;;;;;5060184;28;20044;-70
2023/03/28 05:46:51;;;;;;;12.13;5.80;;;8.00;87.80;;;;;;5062725;28;20575;-71
2023/03/28 05:49:17;;;;;;;10.13;5.72;;;7.90;88.40;;;;;;5062956;28;20036;-71
2023/03/28 05:51:42;;;;;;;9.73;6.00;;;7.90;88.30;;;;;;5069555;28;20455;-71
2023/03/28 05:54:08;;;;;;;10.13;5.57;;;7.90;87.70;;;;;;5063671;28;20533;-71
2023/03/28 05:56:34;;;;;;;13.05;6.45;;;7.80;88.60;;;;;;5068953;28;20029;-70
2023/03/28 05:59:00;;;;;;;14.05;6.13;;;7.80;88.40;;;;;;5064085;28;20040;-72
2023/03/28 06:01:27;;;;;;;13.15;5.80;;;8.00;87.90;;;;;;5046889;28;20035;-72
2023/03/28 06:03:54;;;;;;;13.00;6.18;;;8.00;87.40;;;;;;5060080;28;20029;-72
2023/03/28 06:06:20;;;;;;;10.95;5.35;;;8.00;87.10;;;;;;5063492;28;20032;-71
2023/03/28 06:08:46;;;;;;;12.00;6.18;;;7.90;88.00;;;;;;5064095;28;20036;-71
2023/03/28 06:11:11;;;;;;;12.45;5.60;;;7.90;87.80;;;;;;5066000;28;20122;-71
2023/03/28 06:13:37;;;;;;;12.68;5.88;;;8.00;87.50;;;;;;5074845;28;20021;-71
2023/03/28 06:16:03;;;;;;;11.95;5.38;;;8.00;87.50;;;;;;5064960;28;20036;-72
2023/03/28 06:18:29;;;;;;;10.50;5.78;;;8.00;87.50;;;;;;5074842;28;20020;-71
2023/03/28 06:20:54;;;;;;;9.18;5.82;;;8.00;87.50;;;;;;5074943;28;20032;-72
2023/03/28 06:23:21;;;;;;;8.13;4.82;;;8.00;87.50;;;;;;5074819;28;20040;-72
2023/03/28 06:25:47;;;;;;;9.88;5.40;;;8.00;87.00;;;;;;5055195;28;20036;-71
2023/03/28 06:28:12;;;;;;;12.35;5.05;;;8.10;86.90;;;;;;5073964;28;20351;-70
2023/03/28 06:30:41;;;;;;;10.52;5.15;;;8.10;87.10;;;;;;5074572;28;20103;-72
2023/03/28 06:33:07;;;;;;;12.70;5.75;;;8.10;87.10;;;;;;5075087;28;20028;-72
2023/03/28 06:35:33;;;;;;;13.05;5.07;;;8.10;87.20;;;;;;5074741;28;20082;-71
2023/03/28 06:37:59;;;;;;;12.98;5.88;;;8.10;87.30;;;;;;5074961;28;20299;-71
2023/03/28 06:40:25;;;;;;;12.77;4.90;;;8.10;87.40;;;;;;5056608;28;20024;-72
2023/03/28 06:42:51;;;;;;;9.95;5.15;;;8.10;87.70;;;;;;5074826;28;20016;-71
2023/03/28 06:45:18;;;;;;;11.13;5.47;;;8.20;87.40;;;;;;5074262;28;20542;-72
2023/03/28 06:47:44;;;;;;;15.48;5.85;;;8.20;87.30;;;;;;5074719;28;20032;-71
2023/03/28 06:50:10;;;;;;;11.48;4.97;;;8.20;87.50;;;;;;5074727;28;20085;-72
2023/03/28 06:52:36;;;;;;;15.80;5.70;;;8.20;87.60;;;;;;5074657;28;20024;-71
2023/03/28 06:55:03;;;;;;;12.23;6.53;;;8.20;87.60;;;;;;5074499;28;20013;-70
2023/03/28 06:57:28;;;;;;;10.70;5.13;;;8.20;87.30;;;;;;5073644;28;20100;-72
2023/03/28 06:59:54;;;;;;;13.13;5.85;;;8.30;87.30;;;;;;5074255;28;20124;-71
2023/03/28 07:02:19;;;;;;;13.70;6.97;;;8.30;87.20;;;;;;5072387;28;20025;-70
2023/03/28 07:04:45;;;;;;;13.80;7.07;;;8.30;87.20;;;;;;5065906;28;20044;-71
2023/03/28 07:07:11;;;;;;;14.45;7.45;;;8.20;88.20;;;;;;5063581;28;20071;-70
2023/03/28 07:09:36;;;;;;;17.13;7.22;;;8.20;88.40;;;;;;5060679;28;20079;-71
2023/03/28 07:12:02;;;;;;;13.00;6.38;;;8.30;88.60;;;;;;5063364;28;20048;-70
2023/03/28 07:14:28;;;;;;;7.85;5.22;;;8.30;88.40;;;;;;5040178;28;20032;-72
2023/03/28 07:16:54;;;;;;;12.10;5.40;;;8.40;88.60;;;;;;5063730;28;20032;-71
2023/03/28 07:19:21;;;;;;;10.40;5.57;;;8.40;89.20;;;;;;5067754;28;20107;-71
2023/03/28 07:21:46;;;;;;;9.52;4.50;;;8.50;89.50;;;;;;5059021;28;20523;-71
2023/03/28 07:24:12;;;;;;;11.05;5.07;;;8.50;90.00;;;;;;5073312;28;20032;-71
2023/03/28 07:26:38;;;;;;;12.50;4.47;;;8.60;89.30;;;;;;5067534;28;20060;-74
2023/03/28 07:29:04;;;;;;;9.23;4.70;;;8.60;88.60;;;;;;5064453;28;20024;-72
2023/03/28 07:31:29;;;;;;;9.38;4.20;;;8.60;88.70;;;;;;5072368;28;20027;-73
2023/03/28 07:33:56;;;;;;;11.43;4.65;;;8.60;88.90;;;;;;5067490;28;20025;-72
2023/03/28 07:36:23;;;;;;;13.43;5.03;;;8.60;89.30;;;;;;5074280;28;20035;-72
2023/03/28 07:38:49;;;;;;;14.82;5.05;;;8.70;88.60;;;;;;5068877;28;20453;-73
2023/03/28 07:41:15;;;;;;;9.68;4.93;;;8.70;88.80;;;;;;5062996;28;20013;-72
2023/03/28 07:43:40;;;;;;;6.78;3.88;;;8.70;88.40;;;;;;5053752;28;20105;-72
2023/03/28 07:46:08;;;;;;;6.85;4.10;;;8.70;88.60;;;;;;5057877;28;20020;-72
2023/03/28 07:48:36;;;;;;;7.25;3.95;;;8.80;89.50;;;;;;5053951;28;20025;-73
2023/03/28 07:51:05;;;;;;;9.82;4.35;;;8.90;90.50;;;;;;5065718;28;20037;-72
2023/03/28 07:53:30;;;;;;;8.25;4.72;;;9.00;90.80;;;;;;5065833;28;20032;-72
2023/03/28 07:55:56;;;;;;;8.85;4.80;;;9.00;90.30;;;;;;5059100;28;20351;-72
2023/03/28 07:58:22;;;;;;;8.73;4.28;;;9.00;88.40;;;;;;5063603;28;20029;-72
2023/03/28 08:00:48;;;;;;;10.50;3.90;;;9.00;87.80;;;;;;5068417;28;20024;-73
2023/03/28 08:03:14;;;;;;;11.88;4.57;;;9.00;88.20;;;;;;5071444;28;20390;-73
2023/03/28 08:05:40;;;;;;;8.43;4.05;;;9.10;88.20;;;;;;5058568;28;20525;-73
2023/03/28 08:08:06;;;;;;;9.85;4.90;;;9.00;88.80;;;;;;5052699;28;20100;-72
2023/03/28 08:10:32;;;;;;;8.18;3.85;;;9.10;88.00;;;;;;5058449;28;20051;-73
2023/03/28 08:12:58;;;;;;;9.25;5.53;;;9.10;88.00;;;;;;5055436;28;20463;-72
2023/03/28 08:15:24;;;;;;;9.80;4.70;;;9.10;87.60;;;;;;5072828;28;20027;-72
2023/03/28 08:17:50;;;;;;;8.18;4.55;;;9.10;88.00;;;;;;5071662;28;20031;-72
2023/03/28 08:20:15;;;;;;;7.60;4.20;;;9.10;88.20;;;;;;5054687;28;20382;-72
2023/03/28 08:22:41;;;;;;;11.60;4.50;;;9.10;88.00;;;;;;5047248;28;20535;-72
2023/03/28 08:25:08;;;;;;;9.05;4.63;;;9.20;88.50;;;;;;5071834;28;20037;-73
2023/03/28 08:27:34;;;;;;;9.70;4.10;;;9.20;90.10;;;;;;5072556;28;20025;-72
2023/03/28 08:29:59;;;;;;;10.48;4.93;;;9.30;89.80;;;;;;5072799;28;20028;-73
2023/03/28 08:32:25;;;;;;;14.23;5.93;;;9.30;88.60;;;;;;5072518;28;20020;-73
2023/03/28 08:34:51;;;;;;;13.23;5.28;;;9.30;87.80;;;;;;5071380;28;20039;-73
2023/03/28 08:37:17;;;;;;;10.13;5.10;;;9.40;87.30;;;;;;5074757;28;20032;-72
2023/03/28 08:39:43;;;;;;;9.82;5.47;;;9.30;88.00;;;;;;5071372;28;20028;-72
2023/03/28 08:42:27;;;;;;;12.38;5.35;;;9.40;88.50;;;;;;5052712;28;20092;-73
2023/03/28 08:45:35;;;;;;;10.07;4.60;;;9.40;89.00;;;;;;5056000;28;20058;-72
2023/03/28 08:48:10;;;;;;;10.70;4.63;;;9.50;88.90;;;;;;5072549;28;20029;-72
2023/03/28 08:50:56;;;;;;;11.73;4.55;;;9.50;87.50;;;;;;5072364;28;20362;-72
2023/03/28 08:53:37;;;;;;;9.02;3.97;;;9.50;88.30;;;;;;5069910;28;20520;-72
2023/03/28 08:56:07;;;;;;;13.50;5.07;;;9.60;87.90;;;;;;5072208;28;20082;-72
2023/03/28 08:58:57;;;;;;;9.98;4.25;;;9.60;87.40;;;;;;5064385;28;20021;-73
2023/03/28 09:01:28;;;;;;;8.10;3.55;;;9.60;86.20;;;;;;5068078;28;20024;-72
2023/03/28 09:03:53;;;;;;;9.85;3.65;;;9.60;86.40;;;;;;5051885;28;20082;-72
2023/03/28 09:06:29;;;;;;;9.38;3.30;;;9.70;87.00;;;;;;5056389;28;20033;-73
2023/03/28 09:08:58;;;;;;;8.23;3.00;;;9.70;85.70;;;;;;5071223;28;20032;-73
2023/03/28 09:11:45;;;;;;;5.40;2.70;;;9.80;85.80;;;;;;5052837;28;20470;-72
2023/03/28 09:14:35;;;;;;;6.05;2.80;;;9.90;87.50;;;;;;5068328;28;20021;-72
2023/03/28 09:17:27;;;;;;;12.75;3.10;;;9.90;88.50;;;;;;5062454;28;20028;-72
2023/03/28 09:20:10;;;;;;;6.40;3.20;;;10.00;86.90;;;;;;5067856;28;20029;-71
2023/03/28 09:22:47;;;;;;;12.63;3.30;;;9.90;85.60;;;;;;5062641;28;20020;-70
2023/03/28 09:25:18;;;;;;;7.57;3.15;;;9.90;86.60;;;;;;5067407;28;20037;-71
2023/03/28 09:27:50;;;;;;;7.75;2.55;;;10.00;87.00;;;;;;5069467;28;20051;-71
2023/03/28 09:30:20;;;;;;;11.02;2.85;;;10.00;87.00;;;;;;5067285;28;20027;-70
2023/03/28 09:32:48;;;;;;;8.43;2.97;;;10.10;88.70;;;;;;5068847;28;20082;-69
2023/03/28 09:35:20;;;;;;;8.65;2.75;;;10.10;90.10;;;;;;5069093;28;20082;-69
2023/03/28 09:37:52;;;;;;;10.80;3.17;;;10.20;88.70;;;;;;5075548;28;20044;-70
2023/03/28 09:40:27;;;;;;;11.35;2.47;;;10.20;87.60;;;;;;5066755;28;20031;-69
2023/03/28 09:43:19;;;;;;;5.93;2.67;;;10.30;90.10;;;;;;5075282;28;20032;-70
2023/03/28 09:45:59;;;;;;;8.30;2.65;;;10.40;92.00;;;;;;5057314;28;20041;-69
2023/03/28 09:48:31;;;;;;;9.02;2.60;;;10.40;92.40;;;;;;5056370;28;20415;-69
2023/03/28 09:50:57;;;;;;;8.55;2.55;;;10.40;91.80;;;;;;5069228;28;20035;-69
2023/03/28 09:53:31;;;;;;;9.13;2.30;;;10.50;92.90;;;;;;5055350;28;20082;-69
2023/03/28 09:56:02;;;;;;;8.27;2.00;;;10.60;93.90;;;;;;5056087;28;20021;-69
2023/03/28 09:58:28;;;;;;;5.63;2.40;;;10.70;94.00;;;;;;5073716;28;20421;-69
2023/03/28 10:00:54;;;;;;;6.90;2.45;;;10.70;94.20;;;;;;5072266;28;20052;-69
2023/03/28 10:03:31;;;;;;;6.75;2.33;;;10.70;91.90;;;;;;5056974;28;20093;-70
2023/03/28 10:06:17;;;;;;;5.35;2.38;;;10.80;94.20;;;;;;5037782;28;20473;-69
2023/03/28 10:08:43;;;;;;;13.40;2.78;;;10.80;93.80;;;;;;5055465;28;20022;-70
2023/03/28 10:11:17;;;;;;;9.93;2.20;;;10.80;93.40;;;;;;5055370;28;20029;-70
2023/03/28 10:13:48;;;;;;;7.20;2.25;;;10.90;94.00;;;;;;5056512;28;20359;-69
2023/03/28 10:16:44;;;;;;;5.80;2.45;;;11.00;94.00;;;;;;5059987;28;20024;-70
2023/03/28 10:19:13;;;;;;;10.07;2.38;;;11.00;93.90;;;;;;5062504;28;20048;-69
2023/03/28 10:21:38;;;;;;;10.35;2.42;;;11.00;93.40;;;;;;5064858;28;20523;-70
2023/03/28 10:24:07;;;;;;;4.05;1.73;;;11.00;93.60;;;;;;5066300;28;20108;-69
2023/03/28 10:26:33;;;;;;;7.50;2.58;;;11.00;94.10;;;;;;5075148;28;20013;-70
2023/03/28 10:29:02;;;;;;;8.45;2.45;;;11.10;93.20;;;;;;5069470;28;20033;-71
2023/03/28 10:31:31;;;;;;;5.90;2.25;;;11.10;92.60;;;;;;5053212;28;20107;-69
2023/03/28 10:33:58;;;;;;;5.35;2.50;;;11.10;94.00;;;;;;5074322;28;20078;-71
2023/03/28 10:36:39;;;;;;;7.50;2.33;;;11.20;94.80;;;;;;5057339;28;20029;-70
2023/03/28 10:39:21;;;;;;;7.68;2.80;;;11.20;93.80;;;;;;5074069;28;20539;-69
2023/03/28 10:41:58;;;;;;;5.03;2.13;;;11.20;92.50;;;;;;5073896;28;20025;-70
2023/03/28 10:44:27;;;;;;;5.65;2.28;;;11.10;92.50;;;;;;5082294;28;20032;-70
2023/03/28 10:46:55;;;;;;;7.47;2.50;;;11.10;91.20;;;;;;5094604;28;20220;-70
2023/03/28 10:49:21;;;;;;;8.52;2.70;;;11.10;90.10;;;;;;5093332;28;20027;-71
2023/03/28 10:51:47;;;;;;;8.00;2.45;;;11.10;89.20;;;;;;5067112;28;20028;-71
2023/03/28 10:54:40;;;;;;;5.75;1.88;;;11.20;91.10;;;;;;5054401;28;20029;-71
2023/03/28 10:57:11;;;;;;;4.30;1.83;;;11.30;92.90;;;;;;5069462;28;20488;-71
2023/03/28 10:59:44;;;;;;;6.13;2.00;;;11.30;93.00;;;;;;5095154;28;20104;-70
2023/03/28 11:02:41;;;;;;;9.27;2.28;;;11.40;93.60;;;;;;5094457;28;20076;-70
2023/03/28 11:05:26;;;;;;;5.13;1.80;;;11.50;93.20;;;;;;5054082;28;20124;-70
2023/03/28 11:08:04;;;;;;;7.80;1.92;;;11.50;93.60;;;;;;5055556;28;20106;-71
2023/03/28 11:10:39;;;;;;;7.10;2.35;;;11.50;91.40;;;;;;5063180;28;20390;-71
2023/03/28 11:13:16;;;;;;;5.75;1.70;;;11.50;90.40;;;;;;5061144;28;20025;-71
2023/03/28 11:16:25;;;;;;;3.78;1.73;;;11.50;90.90;;;;;;5055062;28;20029;-72
2023/03/28 11:19:27;;;;;;;7.15;2.15;;;11.60;92.90;;;;;;5019397;28;20447;-70
2023/03/28 11:22:32;;;;;;;8.30;1.90;;;11.60;91.60;;;;;;5064492;28;20488;-71
2023/03/28 11:25:07;;;;;;;4.30;1.85;;;11.70;91.80;;;;;;5072627;28;20078;-70
2023/03/28 11:27:51;;;;;;;8.77;2.47;;;11.70;91.20;;;;;;5052192;28;20569;-71
2023/03/28 11:30:22;;;;;;;5.63;1.50;;;11.70;89.30;;;;;;5070232;28;20034;-71
2023/03/28 11:32:56;;;;;;;11.80;2.40;;;11.80;93.50;;;;;;5063234;28;20024;-71
2023/03/28 11:35:33;;;;;;;8.82;2.30;;;11.80;94.70;;;;;;5072663;28;20028;-72
2023/03/28 11:38:39;;;;;;;10.45;3.45;;;11.90;93.70;;;;;;5073283;28;20111;-72
2023/03/28 11:41:29;;;;;;;14.73;3.53;;;12.00;96.30;;;;;;5037662;28;20489;-72
2023/03/28 11:44:01;;;;;;;14.60;3.05;;;12.00;94.50;;;;;;5059074;28;20031;-72
2023/03/28 11:46:36;;;;;;;14.70;3.55;;;12.00;94.70;;;;;;5067923;28;20104;-72
2023/03/28 11:49:25;;;;;;;14.05;3.88;;;12.10;96.40;;;;;;5072101;28;20487;-71
2023/03/28 11:51:57;;;;;;;8.73;2.80;;;12.20;95.80;;;;;;5051084;28;20031;-72
2023/03/28 11:55:01;;;;;;;13.13;3.45;;;12.20;96.10;;;;;;5068567;28;20039;-71
2023/03/28 11:57:31;;;;;;;12.23;3.40;;;12.30;94.80;;;;;;5028363;28;20037;-72
2023/03/28 12:00:19;;;;;;;11.52;3.78;;;12.30;95.10;;;;;;5046867;28;20040;-72
2023/03/28 12:03:18;;;;;;;14.32;3.72;;;12.40;94.50;;;;;;5065780;28;20107;-72
2023/03/28 12:05:59;;;;;;;11.45;3.00;;;12.40;94.00;;;;;;5065730;28;20033;-72
2023/03/28 12:08:37;;;;;;;11.40;3.13;;;12.50;93.40;;;;;;5060486;28;20025;-72
2023/03/28 12:11:09;;;;;;;11.70;3.10;;;12.50;92.80;;;;;;5063812;28;20474;-73
2023/03/28 12:14:11;;;;;;;10.00;2.78;;;12.50;92.60;;;;;;5057926;28;20455;-71
2023/03/28 12:16:42;;;;;;;14.65;3.97;;;12.60;92.60;;;;;;5070533;28;20413;-69
2023/03/28 12:19:12;;;;;;;6.78;2.55;;;12.60;91.60;;;;;;5058171;28;20029;-71
2023/03/28 12:21:42;;;;;;;12.32;2.85;;;12.70;93.60;;;;;;5059089;28;20104;-72
2023/03/28 12:24:25;;;;;;;7.82;3.00;;;12.70;92.90;;;;;;5056292;28;20037;-73
2023/03/28 12:26:57;;;;;;;9.50;2.40;;;12.80;93.40;;;;;;5052982;28;20104;-71
2023/03/28 12:29:38;;;;;;;10.02;2.70;;;12.80;94.10;;;;;;5053094;28;20040;-70
2023/03/28 12:32:47;;;;;;;7.65;2.55;;;12.80;92.70;;;;;;5052361;28;20508;-72
2023/03/28 12:35:39;;;;;;;10.25;1.95;;;12.90;93.80;;;;;;5047004;28;20037;-73
2023/03/28 12:38:25;;;;;;;;;;;12.90;95.40;;;;;;5044802;28;20044;-71
2023/03/28 12:40:57;;;;;;;7.05;2.20;;;12.90;94.10;;;;;;5053847;28;19912;-73
2023/03/28 12:43:50;;;;;;;7.53;2.65;;;12.90;94.70;;;;;;5064116;28;20028;-73
2023/03/28 12:46:24;;;;;;;9.13;3.22;;;13.00;95.30;;;;;;5072264;28;20174;-72
2023/03/28 12:48:57;;;;;;;6.32;1.95;;;13.00;94.70;;;;;;5081140;28;20024;-72
2023/03/28 12:51:54;;;;;;;6.63;2.28;;;13.10;95.50;;;;;;5065551;28;20032;-72
2023/03/28 12:54:24;;;;;;;8.40;2.78;;;13.10;95.20;;;;;;5056405;28;20354;-73
2023/03/28 12:57:02;;;;;;;6.47;2.47;;;13.10;94.70;;;;;;5071167;28;20021;-72
2023/03/28 12:59:53;;;;;;;6.63;2.47;;;13.10;94.10;;;;;;5072482;28;20039;-72
2023/03/28 13:02:32;;;;;;;7.00;2.85;;;13.10;93.40;;;;;;5072014;28;20401;-73
2023/03/28 13:05:13;;;;;;;6.53;2.65;;;13.20;92.80;;;;;;5052170;28;20060;-72
2023/03/28 13:08:16;;;;;;;9.40;2.73;;;13.10;92.60;;;;;;5034973;28;20033;-73
2023/03/28 13:11:14;;;;;;;5.32;2.72;;;13.10;91.10;;;;;;5056882;28;20028;-72
2023/03/28 13:13:57;;;;;;;7.88;3.17;;;13.10;90.60;;;;;;4980663;28;20613;-71
2023/03/28 13:16:36;;;;;;;7.30;2.60;;;13.20;89.60;;;;;;5052055;28;20025;-72